createdAt,value
2023-02-06T00:00:54.232Z,42.90
2023-02-06T00:03:20.952Z,54.53
2023-02-06T00:05:57.881Z,45.97
2023-02-06T00:08:25.138Z,30.40
2023-02-06T00:10:53.120Z,39.95
2023-02-06T00:13:19.841Z,39.45
2023-02-06T00:15:46.702Z,41.70
2023-02-06T00:18:13.411Z,35.65
2023-02-06T00:20:40.020Z,28.67
2023-02-06T00:23:06.680Z,33.53
2023-02-06T00:25:33.689Z,43.08
2023-02-06T00:28:00.621Z,33.40
2023-02-06T00:30:27.480Z,39.60
2023-02-06T00:32:54.195Z,37.17
2023-02-06T00:35:20.847Z,29.27
2023-02-06T00:37:47.562Z,36.50
2023-02-06T00:40:14.255Z,30.85
2023-02-06T00:42:40.921Z,42.40
2023-02-06T00:45:08.519Z,26.92
2023-02-06T00:47:35.176Z,26.98
2023-02-06T00:50:01.985Z,44.80
2023-02-06T00:52:28.610Z,31.85
2023-02-06T00:54:55.273Z,36.25
2023-02-06T00:57:21.974Z,38.95
2023-02-06T00:59:48.704Z,38.83
2023-02-06T01:02:15.330Z,41.28
2023-02-06T01:04:41.985Z,31.90
2023-02-06T01:07:08.623Z,31.67
2023-02-06T01:09:35.445Z,31.00
2023-02-06T01:12:02.118Z,39.63
2023-02-06T01:14:28.926Z,38.72
2023-02-06T01:16:55.768Z,33.17
2023-02-06T01:19:22.533Z,45.45
2023-02-06T01:21:49.194Z,39.85
2023-02-06T01:24:15.835Z,33.85
2023-02-06T01:26:42.490Z,39.47
2023-02-06T01:29:09.098Z,32.50
2023-02-06T01:31:35.765Z,35.20
2023-02-06T01:34:02.450Z,34.90
2023-02-06T01:36:29.342Z,29.02
2023-02-06T01:38:56.028Z,28.17
2023-02-06T01:41:22.954Z,32.83
2023-02-06T01:44:08.617Z,34.47
2023-02-06T01:46:35.325Z,35.03
2023-02-06T01:49:03.626Z,32.88
2023-02-06T01:51:31.228Z,32.65
2023-02-06T01:54:02.430Z,36.13
2023-02-06T01:56:31.716Z,36.47
2023-02-06T01:59:00.082Z,33.97
2023-02-06T02:01:26.868Z,38.38
2023-02-06T02:03:56.069Z,36.05
2023-02-06T02:06:23.932Z,35.10
2023-02-06T02:08:52.194Z,42.63
2023-02-06T02:11:31.945Z,30.52
2023-02-06T02:13:59.818Z,38.40
2023-02-06T02:16:48.405Z,32.50
2023-02-06T02:22:26.262Z,31.95
2023-02-06T02:24:59.936Z,30.52
2023-02-06T02:27:49.217Z,35.40
2023-02-06T02:31:05.286Z,34.83
2023-02-06T02:33:47.284Z,34.22
2023-02-06T02:36:18.846Z,32.35
2023-02-06T02:38:58.083Z,28.45
2023-02-06T02:41:35.972Z,35.15
2023-02-06T02:44:15.005Z,30.65
2023-02-06T02:46:46.964Z,43.03
2023-02-06T02:49:17.593Z,38.85
2023-02-06T02:51:44.295Z,37.00
2023-02-06T02:54:11.052Z,34.08
2023-02-06T02:56:41.891Z,33.45
2023-02-06T02:59:14.710Z,32.70
2023-02-06T03:01:44.808Z,39.67
2023-02-06T03:04:15.456Z,33.28
2023-02-06T03:06:52.519Z,36.40
2023-02-06T03:09:28.299Z,39.15
2023-02-06T03:12:36.852Z,38.92
2023-02-06T03:15:17.595Z,39.70
2023-02-06T03:17:47.116Z,38.80
2023-02-06T03:20:13.925Z,32.08
2023-02-06T03:22:40.611Z,45.47
2023-02-06T03:25:10.509Z,36.03
2023-02-06T03:27:37.877Z,36.58
2023-02-06T03:30:04.910Z,18.27
2023-02-06T03:32:32.649Z,47.20
2023-02-06T03:35:05.427Z,31.67
2023-02-06T03:37:32.127Z,41.47
2023-02-06T03:40:00.425Z,30.65
2023-02-06T03:42:27.776Z,32.72
2023-02-06T03:45:06.124Z,36.00
2023-02-06T03:47:33.506Z,39.97
2023-02-06T03:50:00.472Z,38.53
2023-02-06T03:52:29.916Z,28.70
2023-02-06T03:55:02.620Z,31.65
2023-02-06T03:57:29.927Z,34.65
2023-02-06T03:59:56.706Z,34.28
2023-02-06T04:02:23.479Z,30.08
2023-02-06T04:04:50.164Z,30.10
2023-02-06T04:07:26.160Z,42.00
2023-02-06T04:09:52.924Z,40.05
2023-02-06T04:12:19.944Z,26.67
2023-02-06T04:14:46.697Z,31.95
2023-02-06T04:17:18.742Z,29.42
2023-02-06T04:19:50.795Z,31.10
2023-02-06T04:22:18.609Z,33.70
2023-02-06T04:24:45.387Z,48.13
2023-02-06T04:27:12.944Z,37.08
2023-02-06T04:29:39.702Z,44.90
2023-02-06T04:32:06.523Z,35.47
2023-02-06T04:34:34.031Z,34.28
2023-02-06T04:37:01.014Z,39.42
2023-02-06T04:39:27.948Z,44.00
2023-02-06T04:41:54.650Z,43.15
2023-02-06T04:44:21.712Z,43.00
2023-02-06T04:46:48.570Z,37.92
2023-02-06T04:49:15.621Z,37.38
2023-02-06T04:51:42.544Z,31.23
2023-02-06T04:54:10.540Z,31.30
2023-02-06T04:56:37.399Z,30.30
2023-02-06T04:59:04.183Z,32.90
2023-02-06T05:01:31.103Z,35.70
2023-02-06T05:03:58.050Z,42.17
2023-02-06T05:06:24.839Z,35.75
2023-02-06T05:08:51.629Z,43.47
2023-02-06T05:11:18.333Z,46.08
2023-02-06T05:13:45.604Z,27.55
2023-02-06T05:16:14.675Z,42.22
2023-02-06T05:18:41.976Z,46.97
2023-02-06T05:21:09.742Z,43.42
2023-02-06T05:23:36.424Z,38.83
2023-02-06T05:26:03.449Z,44.88
2023-02-06T05:28:30.201Z,39.47
2023-02-06T05:30:57.264Z,32.78
2023-02-06T05:33:24.100Z,32.70
2023-02-06T05:35:50.785Z,33.85
2023-02-06T05:38:18.701Z,35.40
2023-02-06T05:40:45.622Z,31.85
2023-02-06T05:43:13.473Z,38.10
2023-02-06T05:45:40.449Z,40.15
2023-02-06T05:48:07.316Z,32.53
2023-02-06T05:50:34.080Z,38.08
2023-02-06T05:53:01.984Z,32.63
2023-02-06T05:55:28.714Z,32.50
2023-02-06T05:57:55.545Z,27.35
2023-02-06T06:00:22.490Z,32.50
2023-02-06T06:02:49.251Z,39.85
2023-02-06T06:05:17.015Z,34.65
2023-02-06T06:07:45.842Z,40.95
2023-02-06T06:10:12.648Z,26.30
2023-02-06T06:12:40.884Z,32.70
2023-02-06T06:15:07.984Z,32.13
2023-02-06T06:17:34.701Z,33.75
2023-02-06T06:20:05.090Z,35.75
2023-02-06T06:22:31.861Z,29.77
2023-02-06T06:24:58.647Z,24.85
2023-02-06T06:27:25.455Z,35.80
2023-02-06T06:29:52.302Z,30.67
2023-02-06T06:32:19.485Z,33.15
2023-02-06T06:34:46.305Z,24.38
2023-02-06T06:37:12.999Z,30.15
2023-02-06T06:39:39.831Z,38.63
2023-02-06T06:42:06.611Z,24.23
2023-02-06T06:44:33.377Z,22.30
2023-02-06T06:47:00.004Z,29.60
2023-02-06T06:49:28.939Z,29.77
2023-02-06T06:51:55.726Z,32.25
2023-02-06T06:54:22.522Z,25.45
2023-02-06T06:56:49.218Z,32.28
2023-02-06T06:59:15.825Z,22.23
2023-02-06T07:01:42.494Z,28.60
2023-02-06T07:04:10.216Z,28.30
2023-02-06T07:06:50.027Z,33.65
2023-02-06T07:09:16.844Z,29.05
2023-02-06T07:11:43.485Z,24.23
2023-02-06T07:14:10.173Z,29.27
2023-02-06T07:16:36.954Z,28.67
2023-02-06T07:19:03.627Z,31.05
2023-02-06T07:21:30.304Z,38.22
2023-02-06T07:23:57.016Z,31.50
2023-02-06T07:26:23.729Z,37.30
2023-02-06T07:28:50.406Z,30.60
2023-02-06T07:31:17.187Z,24.20
2023-02-06T07:33:43.854Z,30.67
2023-02-06T07:36:11.979Z,32.35
2023-02-06T07:38:38.865Z,26.33
2023-02-06T07:41:05.704Z,24.85
2023-02-06T07:43:32.415Z,31.02
2023-02-06T07:46:03.549Z,30.83
2023-02-06T07:48:30.520Z,35.78
2023-02-06T07:50:57.841Z,24.42
2023-02-06T07:53:24.560Z,28.25
2023-02-06T07:55:51.227Z,48.08
2023-02-06T07:58:17.898Z,38.17
2023-02-06T08:00:45.920Z,44.80
2023-02-06T08:03:12.669Z,47.15
2023-02-06T08:05:39.495Z,40.60
2023-02-06T08:08:06.824Z,30.75
2023-02-06T08:10:33.574Z,38.70
2023-02-06T08:13:00.192Z,45.75
2023-02-06T08:15:27.059Z,37.97
2023-02-06T08:17:53.881Z,32.17
2023-02-06T08:20:20.597Z,32.35
2023-02-06T08:22:47.240Z,38.53
2023-02-06T08:25:13.963Z,25.60
2023-02-06T08:27:40.627Z,23.33
2023-02-06T08:30:07.815Z,33.83
2023-02-06T08:32:34.977Z,38.13
2023-02-06T08:35:02.023Z,31.77
2023-02-06T08:37:30.859Z,28.60
2023-02-06T08:39:57.572Z,29.52
2023-02-06T08:42:24.202Z,35.60
2023-02-06T08:44:50.880Z,33.33
2023-02-06T08:47:29.281Z,37.38
2023-02-06T08:49:56.156Z,28.55
2023-02-06T08:52:22.990Z,29.45
2023-02-06T08:54:51.166Z,32.00
2023-02-06T08:57:44.098Z,35.00
2023-02-06T09:00:15.839Z,44.97
2023-02-06T09:02:44.199Z,32.95
2023-02-06T09:05:26.885Z,26.17
2023-02-06T09:11:11.829Z,24.77
2023-02-06T09:13:41.062Z,23.80
2023-02-06T09:16:21.304Z,35.58
2023-02-06T09:19:00.977Z,30.25
2023-02-06T09:21:29.552Z,24.30
2023-02-06T09:23:57.903Z,33.72
2023-02-06T09:26:29.330Z,31.60
2023-02-06T09:28:57.557Z,27.17
2023-02-06T09:31:28.261Z,37.17
2023-02-06T09:33:57.437Z,35.53
2023-02-06T09:36:24.134Z,32.38
2023-02-06T09:38:53.897Z,29.40
2023-02-06T09:41:47.757Z,25.55
2023-02-06T09:44:20.361Z,31.20
2023-02-06T09:47:22.800Z,25.98
2023-02-06T09:49:54.098Z,24.45
2023-02-06T09:52:51.650Z,25.95
2023-02-06T09:56:05.777Z,31.38
2023-02-06T09:58:46.800Z,32.10
2023-02-06T10:01:27.304Z,27.67
2023-02-06T10:04:35.849Z,26.38
2023-02-06T10:07:27.355Z,22.85
2023-02-06T10:10:01.707Z,24.00
2023-02-06T10:12:40.917Z,31.23
2023-02-06T10:15:12.932Z,25.98
2023-02-06T10:17:52.721Z,23.35
2023-02-06T10:20:31.660Z,25.45
2023-02-06T10:23:23.990Z,25.30
2023-02-06T10:26:05.589Z,28.98
2023-02-06T10:28:32.732Z,27.42
2023-02-06T10:31:25.344Z,25.08
2023-02-06T10:34:13.557Z,25.33
2023-02-06T10:37:00.953Z,26.77
2023-02-06T10:40:05.240Z,21.17
2023-02-06T10:42:57.846Z,26.90
2023-02-06T10:45:33.302Z,31.27
2023-02-06T10:48:08.765Z,25.45
2023-02-06T10:50:39.474Z,37.78
2023-02-06T10:53:30.160Z,31.42
2023-02-06T10:56:23.993Z,34.80
2023-02-06T10:59:14.745Z,26.60
2023-02-06T11:01:41.616Z,29.95
2023-02-06T11:04:14.027Z,27.63
2023-02-06T11:06:42.173Z,28.80
2023-02-06T11:09:11.742Z,17.65
2023-02-06T11:11:46.683Z,23.20
2023-02-06T11:14:26.291Z,27.83
2023-02-06T11:16:53.046Z,24.75
2023-02-06T11:19:38.419Z,26.10
2023-02-06T11:22:05.320Z,25.67
2023-02-06T11:24:33.508Z,27.65
2023-02-06T11:27:03.954Z,23.75
2023-02-06T11:29:37.419Z,23.67
2023-02-06T11:32:55.761Z,22.67
2023-02-06T11:35:25.836Z,21.60
2023-02-06T11:37:53.796Z,21.85
2023-02-06T11:40:25.215Z,25.83
2023-02-06T11:43:06.789Z,23.35
2023-02-06T11:45:38.845Z,20.35
2023-02-06T11:48:05.990Z,21.30
2023-02-06T11:50:36.831Z,22.60
2023-02-06T11:53:17.073Z,23.30
2023-02-06T11:55:44.622Z,25.17
2023-02-06T11:58:14.291Z,27.20
2023-02-06T12:01:04.451Z,27.02
2023-02-06T12:03:32.604Z,20.17
2023-02-06T12:06:14.354Z,25.27
2023-02-06T12:08:51.127Z,19.90
2023-02-06T12:11:30.705Z,18.10
2023-02-06T12:14:07.026Z,24.58
2023-02-06T12:16:34.797Z,21.17
2023-02-06T12:19:01.531Z,22.83
2023-02-06T12:21:42.164Z,28.08
2023-02-06T12:24:38.544Z,19.27
2023-02-06T12:27:19.759Z,25.83
2023-02-06T12:30:40.205Z,24.55
2023-02-06T12:33:12.333Z,22.55
2023-02-06T12:36:00.329Z,21.42
2023-02-06T12:41:19.563Z,16.75
2023-02-06T12:43:50.942Z,21.58
2023-02-06T12:46:20.840Z,16.33
2023-02-06T12:48:55.863Z,21.70
2023-02-06T12:51:25.728Z,16.10
2023-02-06T12:53:56.892Z,23.42
2023-02-06T12:56:23.616Z,19.67
2023-02-06T12:59:09.013Z,23.60
2023-02-06T13:01:53.181Z,21.00
2023-02-06T13:04:24.847Z,24.58
2023-02-06T13:07:13.390Z,18.50
2023-02-06T13:09:49.618Z,21.35
2023-02-06T13:12:23.761Z,17.17
2023-02-06T13:14:58.016Z,23.80
2023-02-06T13:17:35.052Z,15.10
2023-02-06T13:20:02.931Z,18.65
2023-02-06T13:22:42.768Z,21.05
2023-02-06T13:25:31.487Z,19.75
2023-02-06T13:28:11.109Z,18.17
2023-02-06T13:30:37.922Z,12.50
2023-02-06T13:33:19.188Z,19.35
2023-02-06T13:36:06.319Z,20.70
2023-02-06T13:38:36.065Z,19.02
2023-02-06T13:41:35.464Z,15.15
2023-02-06T13:44:13.649Z,16.52
2023-02-06T13:46:47.455Z,16.52
2023-02-06T13:50:01.805Z,16.67
2023-02-06T13:52:39.326Z,14.43
2023-02-06T13:55:29.814Z,15.35
2023-02-06T13:58:34.262Z,15.90
2023-02-06T14:01:05.055Z,16.70
2023-02-06T14:03:34.040Z,16.05
2023-02-06T14:06:05.127Z,20.10
2023-02-06T14:08:43.246Z,17.60
2023-02-06T14:11:56.673Z,18.45
2023-02-06T14:14:54.880Z,17.33
2023-02-06T14:17:43.339Z,24.90
2023-02-06T14:20:29.979Z,18.27
2023-02-06T14:23:25.606Z,19.30
2023-02-06T14:25:59.244Z,17.02
2023-02-06T14:28:53.864Z,20.50
2023-02-06T14:31:37.514Z,21.75
2023-02-06T14:34:18.539Z,19.55
2023-02-06T14:37:34.560Z,22.77
2023-02-06T14:40:04.665Z,17.83
2023-02-06T14:42:39.759Z,16.35
2023-02-06T14:45:22.771Z,17.30
2023-02-06T14:47:49.622Z,16.80
2023-02-06T14:50:21.600Z,16.95
2023-02-06T14:52:50.924Z,13.27
2023-02-06T14:55:37.879Z,18.08
2023-02-06T14:58:26.518Z,21.45
2023-02-06T15:00:54.353Z,16.25
2023-02-06T15:03:26.977Z,20.35
2023-02-06T15:06:05.659Z,17.98
2023-02-06T15:08:33.386Z,21.58
2023-02-06T15:11:02.143Z,12.77
2023-02-06T15:13:31.890Z,15.90
2023-02-06T15:15:58.581Z,19.42
2023-02-06T15:18:25.317Z,18.48
2023-02-06T15:21:13.550Z,16.80
2023-02-06T15:26:41.682Z,16.10
2023-02-06T15:29:19.284Z,15.15
2023-02-06T15:31:50.341Z,19.25
2023-02-06T15:34:18.864Z,17.88
2023-02-06T15:36:45.920Z,17.98
2023-02-06T15:39:16.005Z,21.73
2023-02-06T15:41:45.706Z,14.15
2023-02-06T15:44:15.234Z,12.52
2023-02-06T15:46:42.040Z,19.92
2023-02-06T15:49:32.545Z,17.70
2023-02-06T15:51:59.306Z,23.80
2023-02-06T15:54:26.699Z,22.27
2023-02-06T15:57:03.985Z,15.00
2023-02-06T15:59:31.245Z,21.50
2023-02-06T16:01:59.115Z,17.73
2023-02-06T16:04:31.095Z,19.90
2023-02-06T16:07:04.716Z,15.75
2023-02-06T16:09:31.425Z,22.25
2023-02-06T16:11:58.160Z,21.02
2023-02-06T16:14:38.442Z,15.77
2023-02-06T16:17:12.352Z,19.83
2023-02-06T16:20:08.319Z,17.95
2023-02-06T16:22:38.019Z,18.73
2023-02-06T16:27:45.285Z,24.73
2023-02-06T16:30:23.976Z,18.63
2023-02-06T16:35:41.562Z,17.80
2023-02-06T16:38:09.407Z,20.95
2023-02-06T16:40:36.411Z,16.55
2023-02-06T16:43:03.352Z,17.52
2023-02-06T16:45:30.077Z,19.08
2023-02-06T16:47:56.936Z,21.33
2023-02-06T16:50:23.703Z,19.40
2023-02-06T16:52:52.540Z,13.90
2023-02-06T16:55:26.504Z,26.30
2023-02-06T16:57:56.471Z,21.27
2023-02-06T17:00:26.884Z,22.33
2023-02-06T17:02:53.720Z,20.25
2023-02-06T17:05:26.183Z,18.85
2023-02-06T17:07:53.011Z,19.00
2023-02-06T17:10:22.060Z,22.20
2023-02-06T17:12:48.996Z,20.42
2023-02-06T17:15:16.709Z,17.05
2023-02-06T17:17:43.683Z,19.50
2023-02-06T17:20:32.991Z,17.95
2023-02-06T17:22:59.832Z,19.25
2023-02-06T17:25:26.581Z,21.15
2023-02-06T17:27:53.479Z,19.17
2023-02-06T17:30:21.500Z,18.98
2023-02-06T17:32:48.609Z,19.85
2023-02-06T17:35:15.628Z,23.27
2023-02-06T17:37:42.530Z,21.92
2023-02-06T17:40:11.854Z,19.02
2023-02-06T17:42:38.755Z,22.02
2023-02-06T17:45:05.833Z,22.35
2023-02-06T17:47:32.537Z,18.23
2023-02-06T17:49:59.273Z,21.13
2023-02-06T17:52:25.984Z,18.30
2023-02-06T17:54:52.692Z,20.77
2023-02-06T17:57:19.341Z,21.50
2023-02-06T17:59:46.070Z,19.00
2023-02-06T18:02:12.766Z,17.52
2023-02-06T18:04:39.479Z,21.48
2023-02-06T18:07:07.006Z,21.42
2023-02-06T18:09:33.710Z,24.52
2023-02-06T18:12:06.453Z,18.35
2023-02-06T18:14:33.828Z,25.58
2023-02-06T18:17:01.967Z,22.48
2023-02-06T18:19:29.031Z,26.13
2023-02-06T18:21:55.888Z,22.27
2023-02-06T18:24:22.669Z,24.92
2023-02-06T18:26:49.467Z,23.48
2023-02-06T18:29:16.341Z,22.60
2023-02-06T18:31:43.018Z,21.48
2023-02-06T18:34:10.454Z,30.13
2023-02-06T18:36:37.523Z,29.48
2023-02-06T18:39:05.327Z,27.45
2023-02-06T18:41:32.096Z,24.73
2023-02-06T18:44:07.048Z,25.98
2023-02-06T18:46:33.904Z,28.08
2023-02-06T18:49:01.789Z,23.35
2023-02-06T18:51:28.590Z,17.98
2023-02-06T18:53:55.375Z,30.83
2023-02-06T18:56:22.141Z,27.73
2023-02-06T18:58:48.911Z,24.55
2023-02-06T19:01:17.437Z,30.48
2023-02-06T19:03:44.246Z,38.45
2023-02-06T19:06:15.756Z,42.03
2023-02-06T19:08:45.104Z,31.23
2023-02-06T19:11:13.048Z,36.15
2023-02-06T19:13:39.943Z,38.13
2023-02-06T19:16:08.519Z,40.83
2023-02-06T19:18:38.845Z,43.63
2023-02-06T19:21:08.846Z,53.55
2023-02-06T19:23:35.540Z,44.72
2023-02-06T19:26:04.676Z,29.80
2023-02-06T19:28:31.506Z,30.33
2023-02-06T19:31:01.903Z,29.60
2023-02-06T19:33:29.522Z,32.78
2023-02-06T19:35:57.690Z,26.42
2023-02-06T19:38:24.534Z,33.22
2023-02-06T19:40:51.271Z,32.33
2023-02-06T19:43:18.604Z,25.67
2023-02-06T19:45:45.519Z,29.13
2023-02-06T19:48:14.105Z,33.40
2023-02-06T19:50:46.710Z,28.48
2023-02-06T19:53:15.660Z,30.65
2023-02-06T19:55:47.381Z,29.65
2023-02-06T19:58:14.223Z,33.20
2023-02-06T20:00:41.150Z,30.02
2023-02-06T20:03:08.004Z,28.48
2023-02-06T20:05:36.736Z,32.35
2023-02-06T20:08:05.100Z,37.47
2023-02-06T20:10:34.206Z,58.63
2023-02-06T20:13:03.074Z,40.70
2023-02-06T20:15:30.292Z,59.30
2023-02-06T20:17:57.009Z,42.47
2023-02-06T20:20:28.659Z,48.05
2023-02-06T20:22:56.339Z,53.85
2023-02-06T20:25:23.050Z,34.95
2023-02-06T20:27:49.854Z,45.72
2023-02-06T20:30:18.013Z,47.95
2023-02-06T20:32:47.321Z,66.95
2023-02-06T20:35:19.409Z,57.03
2023-02-06T20:37:46.308Z,76.55
2023-02-06T20:40:13.046Z,48.25
2023-02-06T20:42:39.730Z,45.60
2023-02-06T20:45:06.720Z,38.50
2023-02-06T20:47:33.460Z,33.40
2023-02-06T20:50:00.136Z,37.55
2023-02-06T20:52:27.054Z,33.88
2023-02-06T20:54:53.745Z,34.58
2023-02-06T20:57:20.519Z,34.50
2023-02-06T20:59:47.375Z,33.60
2023-02-06T21:02:14.096Z,43.05
2023-02-06T21:04:43.741Z,38.67
2023-02-06T21:07:10.489Z,41.25
2023-02-06T21:09:37.240Z,32.05
2023-02-06T21:12:04.133Z,40.03
2023-02-06T21:14:30.945Z,45.08
2023-02-06T21:16:57.845Z,42.60
2023-02-06T21:19:24.967Z,57.47
2023-02-06T21:21:51.726Z,50.13
2023-02-06T21:24:18.567Z,51.20
2023-02-06T21:26:45.432Z,44.88
2023-02-06T21:29:12.667Z,47.22
2023-02-06T21:31:40.436Z,42.50
2023-02-06T21:34:19.724Z,41.47
2023-02-06T21:36:46.557Z,43.42
2023-02-06T21:39:18.818Z,38.35
2023-02-06T21:41:45.630Z,47.08
2023-02-06T21:44:12.778Z,48.60
2023-02-06T21:46:39.453Z,38.10
2023-02-06T21:49:06.092Z,39.75
2023-02-06T21:51:32.709Z,37.92
2023-02-06T21:53:59.406Z,45.95
2023-02-06T21:56:27.304Z,46.90
2023-02-06T21:58:57.948Z,39.25
2023-02-06T22:01:27.460Z,41.08
2023-02-06T22:03:54.269Z,41.60
2023-02-06T22:06:21.057Z,41.20
2023-02-06T22:08:51.134Z,40.75
2023-02-06T22:13:45.604Z,43.47
2023-02-06T22:16:13.504Z,36.78
2023-02-06T22:18:40.566Z,45.22
2023-02-06T22:21:09.272Z,46.50
2023-02-06T22:23:36.044Z,45.10
2023-02-06T22:26:03.003Z,40.67
2023-02-06T22:28:29.690Z,43.78
2023-02-06T22:30:56.568Z,47.70
2023-02-06T22:33:23.306Z,45.63
2023-02-06T22:35:49.980Z,50.38
2023-02-06T22:38:17.808Z,51.22
2023-02-06T22:40:44.449Z,48.35
2023-02-06T22:43:11.118Z,42.80
2023-02-06T22:45:38.193Z,44.58
2023-02-06T22:48:05.168Z,47.08
2023-02-06T22:50:33.709Z,42.47
2023-02-06T22:53:00.387Z,44.83
2023-02-06T22:55:27.120Z,45.28
2023-02-06T22:57:53.744Z,47.22
2023-02-06T23:00:20.489Z,42.30
2023-02-06T23:02:47.133Z,49.97
2023-02-06T23:05:13.831Z,42.92
2023-02-06T23:07:40.517Z,45.42
2023-02-06T23:10:07.345Z,39.88
2023-02-06T23:12:34.060Z,42.55
2023-02-06T23:15:00.702Z,37.97
2023-02-06T23:17:27.388Z,42.90
2023-02-06T23:19:54.057Z,40.75
2023-02-06T23:22:20.734Z,36.05
2023-02-06T23:24:50.059Z,36.63
2023-02-06T23:27:16.658Z,44.85
2023-02-06T23:29:43.329Z,42.72
2023-02-06T23:32:09.947Z,42.80
2023-02-06T23:34:38.509Z,44.30
2023-02-06T23:37:05.776Z,39.20
2023-02-06T23:39:32.421Z,40.70
2023-02-06T23:41:59.090Z,39.17
2023-02-06T23:44:25.712Z,38.95
2023-02-06T23:46:52.382Z,42.58
2023-02-06T23:49:18.992Z,42.13
2023-02-06T23:51:45.745Z,38.20
2023-02-06T23:54:12.443Z,43.92
2023-02-06T23:56:39.106Z,47.10
2023-02-06T23:59:05.884Z,42.08
